createdAt,value
2022-10-23T00:00:26.139Z,12.80
2022-10-23T00:03:12.736Z,12.80
2022-10-23T00:05:59.082Z,12.80
2022-10-23T00:08:47.556Z,12.70
2022-10-23T00:11:36.241Z,12.60
2022-10-23T00:14:26.401Z,12.60
2022-10-23T00:17:13.557Z,12.70
2022-10-23T00:19:59.758Z,12.80
2022-10-23T00:22:46.346Z,12.80
2022-10-23T00:25:33.513Z,12.80
2022-10-23T00:28:21.422Z,12.90
2022-10-23T00:31:08.177Z,12.90
2022-10-23T00:33:54.922Z,12.90
2022-10-23T00:36:41.431Z,12.90
2022-10-23T00:39:28.447Z,12.70
2022-10-23T00:42:17.146Z,12.60
2022-10-23T00:45:17.119Z,12.60
2022-10-23T00:48:04.328Z,12.70
2022-10-23T00:50:51.420Z,12.70
2022-10-23T00:53:39.110Z,12.80
2022-10-23T00:56:26.836Z,12.70
2022-10-23T00:59:13.764Z,12.60
2022-10-23T01:02:01.752Z,12.60
2022-10-23T01:04:48.323Z,12.60
2022-10-23T01:07:43.401Z,12.60
2022-10-23T01:10:37.885Z,12.70
2022-10-23T01:13:36.230Z,12.80
2022-10-23T01:16:28.042Z,12.80
2022-10-23T01:19:25.775Z,12.80
2022-10-23T01:25:27.563Z,12.90
2022-10-23T01:28:22.517Z,12.90
2022-10-23T01:31:15.291Z,13.00
2022-10-23T01:34:07.529Z,13.00
2022-10-23T01:36:56.485Z,13.00
2022-10-23T01:39:50.452Z,13.10
2022-10-23T01:42:40.840Z,13.10
2022-10-23T01:45:39.409Z,13.10
2022-10-23T01:48:30.712Z,13.10
2022-10-23T01:51:18.400Z,13.10
2022-10-23T01:54:09.909Z,13.10
2022-10-23T01:56:58.000Z,13.00
2022-10-23T01:59:50.853Z,13.00
2022-10-23T02:02:40.104Z,13.00
2022-10-23T02:05:29.665Z,13.00
2022-10-23T02:08:17.699Z,13.00
2022-10-23T02:11:09.557Z,13.00
2022-10-23T02:14:01.067Z,12.90
2022-10-23T02:16:52.019Z,12.90
2022-10-23T02:19:47.598Z,12.70
2022-10-23T02:22:39.504Z,12.50
2022-10-23T02:25:33.146Z,12.50
2022-10-23T02:28:26.001Z,12.30
2022-10-23T02:31:20.153Z,12.20
2022-10-23T02:34:07.602Z,12.20
2022-10-23T02:36:55.205Z,12.20
2022-10-23T02:39:43.339Z,12.20
2022-10-23T02:42:33.148Z,12.10
2022-10-23T02:45:29.973Z,12.10
2022-10-23T02:48:23.549Z,12.20
2022-10-23T02:51:15.248Z,12.10
2022-10-23T02:54:08.532Z,12.10
2022-10-23T02:57:05.420Z,12.10
2022-10-23T03:00:02.735Z,12.10
2022-10-23T03:02:57.548Z,12.20
2022-10-23T03:05:46.836Z,12.40
2022-10-23T03:08:42.591Z,12.50
2022-10-23T03:11:30.978Z,12.40
2022-10-23T03:14:17.577Z,12.50
2022-10-23T03:17:04.928Z,12.50
2022-10-23T03:19:51.374Z,12.50
2022-10-23T03:22:37.685Z,12.60
2022-10-23T03:25:24.073Z,12.70
2022-10-23T03:28:12.298Z,12.80
2022-10-23T03:30:58.847Z,13.00
2022-10-23T03:33:45.667Z,13.10
2022-10-23T03:36:32.503Z,13.20
2022-10-23T03:39:18.780Z,13.20
2022-10-23T03:42:05.376Z,13.20
2022-10-23T03:44:53.725Z,13.30
2022-10-23T03:47:41.446Z,13.30
2022-10-23T03:50:28.563Z,13.20
2022-10-23T03:53:15.338Z,13.20
2022-10-23T03:56:01.708Z,13.20
2022-10-23T03:58:48.793Z,13.10
2022-10-23T04:01:36.620Z,12.90
2022-10-23T04:04:23.460Z,13.00
2022-10-23T04:07:09.887Z,12.90
2022-10-23T04:09:57.087Z,12.80
2022-10-23T04:12:44.337Z,12.80
2022-10-23T04:15:32.126Z,12.70
2022-10-23T04:18:20.081Z,12.80
2022-10-23T04:21:07.258Z,12.80
2022-10-23T04:23:54.316Z,12.80
2022-10-23T04:26:42.100Z,12.70
2022-10-23T04:29:32.382Z,12.80
2022-10-23T04:32:18.960Z,12.90
2022-10-23T04:35:08.367Z,12.90
2022-10-23T04:37:55.253Z,13.10
2022-10-23T04:40:43.078Z,13.10
2022-10-23T04:43:29.449Z,13.00
2022-10-23T04:46:16.458Z,12.90
2022-10-23T04:49:06.828Z,13.00
2022-10-23T04:52:29.992Z,13.10
2022-10-23T04:55:25.621Z,13.10
2022-10-23T04:58:32.465Z,13.10
2022-10-23T05:01:19.495Z,13.20
2022-10-23T05:04:07.860Z,13.30
2022-10-23T05:07:05.212Z,13.40
2022-10-23T05:09:59.962Z,13.30
2022-10-23T05:12:57.431Z,13.20
2022-10-23T05:18:41.548Z,13.40
2022-10-23T05:21:30.953Z,13.40
2022-10-23T05:24:19.048Z,13.40
2022-10-23T05:27:16.489Z,13.50
2022-10-23T05:30:03.442Z,13.40
2022-10-23T05:32:55.572Z,13.30
2022-10-23T05:35:46.104Z,13.40
2022-10-23T05:38:37.010Z,13.50
2022-10-23T05:41:31.260Z,13.40
2022-10-23T05:44:20.466Z,13.40
2022-10-23T05:47:10.206Z,13.40
2022-10-23T05:50:02.568Z,13.40
2022-10-23T05:53:08.046Z,13.40
2022-10-23T05:56:11.612Z,13.10
2022-10-23T05:59:04.844Z,13.10
2022-10-23T06:02:10.248Z,13.10
2022-10-23T06:05:11.758Z,13.10
2022-10-23T06:08:01.101Z,13.20
2022-10-23T06:10:47.526Z,13.10
2022-10-23T06:13:34.844Z,13.10
2022-10-23T06:16:24.545Z,13.20
2022-10-23T06:19:13.224Z,13.20
2022-10-23T06:22:01.371Z,13.30
2022-10-23T06:25:05.567Z,13.30
2022-10-23T06:27:52.407Z,13.20
2022-10-23T06:30:40.294Z,13.20
2022-10-23T06:33:26.607Z,13.20
2022-10-23T06:36:15.045Z,13.30
2022-10-23T06:39:03.076Z,13.20
2022-10-23T06:42:09.771Z,13.20
2022-10-23T06:45:14.396Z,13.10
2022-10-23T06:48:03.732Z,13.30
2022-10-23T06:51:17.660Z,13.10
2022-10-23T06:54:04.489Z,13.00
2022-10-23T06:57:09.864Z,13.20
2022-10-23T07:00:04.761Z,13.30
2022-10-23T07:02:59.878Z,13.30
2022-10-23T07:05:47.356Z,13.50
2022-10-23T07:08:36.141Z,13.60
2022-10-23T07:11:29.338Z,13.60
2022-10-23T07:14:18.251Z,13.60
2022-10-23T07:17:05.397Z,13.60
2022-10-23T07:19:53.220Z,13.70
2022-10-23T07:22:39.848Z,14.00
2022-10-23T07:25:31.908Z,14.10
2022-10-23T07:28:20.453Z,14.10
2022-10-23T07:31:06.840Z,14.10
2022-10-23T07:34:22.344Z,14.20
2022-10-23T07:37:21.607Z,14.10
2022-10-23T07:40:09.263Z,14.10
2022-10-23T07:43:04.017Z,14.20
2022-10-23T07:45:51.137Z,14.30
2022-10-23T07:48:44.259Z,14.30
2022-10-23T07:51:31.263Z,14.40
2022-10-23T07:54:19.876Z,14.50
2022-10-23T07:57:41.772Z,14.60
2022-10-23T08:00:58.944Z,15.10
2022-10-23T08:03:52.817Z,15.80
2022-10-23T08:06:39.626Z,16.50
2022-10-23T08:09:27.151Z,17.20
2022-10-23T08:12:14.076Z,17.80
2022-10-23T08:15:01.520Z,18.20
2022-10-23T08:17:58.199Z,18.60
2022-10-23T08:21:05.629Z,19.30
2022-10-23T08:23:55.778Z,19.70
2022-10-23T08:26:42.576Z,20.10
2022-10-23T08:29:30.398Z,20.30
2022-10-23T08:32:17.305Z,20.20
2022-10-23T08:35:25.854Z,20.30
2022-10-23T08:38:12.855Z,20.30
2022-10-23T08:41:04.473Z,20.50
2022-10-23T08:44:19.429Z,20.90
2022-10-23T08:47:11.618Z,21.20
2022-10-23T08:53:25.056Z,21.40
2022-10-23T08:56:18.173Z,21.60
2022-10-23T08:59:12.411Z,21.80
2022-10-23T09:02:05.059Z,22.20
2022-10-23T09:04:54.532Z,22.30
2022-10-23T09:08:00.545Z,22.40
2022-10-23T09:11:07.496Z,22.20
2022-10-23T09:14:19.644Z,22.20
2022-10-23T09:17:16.616Z,22.20
2022-10-23T09:20:13.861Z,22.30
2022-10-23T09:23:04.140Z,22.10
2022-10-23T09:25:56.777Z,22.30
2022-10-23T09:28:48.359Z,21.90
2022-10-23T09:31:35.024Z,21.70
2022-10-23T09:34:23.564Z,21.60
2022-10-23T09:37:23.548Z,21.60
2022-10-23T09:40:19.215Z,21.70
2022-10-23T09:43:15.574Z,21.80
2022-10-23T09:46:04.911Z,22.00
2022-10-23T09:49:00.962Z,22.30
2022-10-23T09:52:00.332Z,22.30
2022-10-23T09:54:48.800Z,22.20
2022-10-23T09:57:41.451Z,22.00
2022-10-23T10:00:29.065Z,21.80
2022-10-23T10:03:21.957Z,21.70
2022-10-23T10:06:24.166Z,21.70
2022-10-23T10:09:14.952Z,21.70
2022-10-23T10:12:18.554Z,21.70
2022-10-23T10:15:17.265Z,21.70
2022-10-23T10:18:14.103Z,22.00
2022-10-23T10:21:10.652Z,22.00
2022-10-23T10:24:03.388Z,21.90
2022-10-23T10:26:57.132Z,21.80
2022-10-23T10:29:57.357Z,21.80
2022-10-23T10:32:51.393Z,21.80
2022-10-23T10:35:42.461Z,21.80
2022-10-23T10:38:45.657Z,22.10
2022-10-23T10:41:52.563Z,22.50
2022-10-23T10:44:54.016Z,22.60
2022-10-23T10:47:51.655Z,22.10
2022-10-23T10:50:47.688Z,21.70
2022-10-23T10:53:55.924Z,21.50
2022-10-23T10:56:44.908Z,21.60
2022-10-23T10:59:37.658Z,21.60
2022-10-23T11:02:29.497Z,21.60
2022-10-23T11:05:27.321Z,21.70
2022-10-23T11:08:17.608Z,21.60
2022-10-23T11:11:10.261Z,21.60
2022-10-23T11:13:57.563Z,21.70
2022-10-23T11:16:47.652Z,21.70
2022-10-23T11:19:38.488Z,21.60
2022-10-23T11:22:34.390Z,21.50
2022-10-23T11:25:48.121Z,21.40
2022-10-23T11:28:53.242Z,21.50
2022-10-23T11:31:46.043Z,21.60
2022-10-23T11:34:57.033Z,21.50
2022-10-23T11:37:45.390Z,21.50
2022-10-23T11:40:32.172Z,21.40
2022-10-23T11:43:28.291Z,21.60
2022-10-23T11:46:16.164Z,22.00
2022-10-23T11:49:05.917Z,22.20
2022-10-23T11:52:01.476Z,22.50
2022-10-23T11:54:49.004Z,22.60
2022-10-23T11:57:35.454Z,22.50
2022-10-23T12:00:23.701Z,22.50
2022-10-23T12:03:21.670Z,22.40
2022-10-23T12:06:21.076Z,22.30
2022-10-23T12:09:23.353Z,22.30
2022-10-23T12:12:28.413Z,22.20
2022-10-23T12:15:23.840Z,22.10
2022-10-23T12:18:16.229Z,22.00
2022-10-23T12:21:04.591Z,22.10
2022-10-23T12:24:24.470Z,22.20
2022-10-23T12:27:32.509Z,22.30
2022-10-23T12:30:23.585Z,22.60
2022-10-23T12:33:19.224Z,22.80
2022-10-23T12:36:25.176Z,22.70
2022-10-23T12:39:28.547Z,22.60
2022-10-23T12:42:20.357Z,22.60
2022-10-23T12:45:19.570Z,22.60
2022-10-23T12:48:06.752Z,22.70
2022-10-23T12:50:56.153Z,22.60
2022-10-23T12:53:42.868Z,22.60
2022-10-23T12:56:35.405Z,22.80
2022-10-23T12:59:26.187Z,22.90
2022-10-23T13:02:24.469Z,22.80
2022-10-23T13:05:15.390Z,22.70
2022-10-23T13:08:03.593Z,22.50
2022-10-23T13:11:06.174Z,22.50
2022-10-23T13:13:57.035Z,22.50
2022-10-23T13:16:43.391Z,22.70
2022-10-23T13:19:36.487Z,22.90
2022-10-23T13:22:23.705Z,23.00
2022-10-23T13:25:27.963Z,22.90
2022-10-23T13:28:16.559Z,22.90
2022-10-23T13:31:26.620Z,22.90
2022-10-23T13:34:30.131Z,22.90
2022-10-23T13:37:26.171Z,22.70
2022-10-23T13:40:23.594Z,22.60
2022-10-23T13:43:18.841Z,22.40
2022-10-23T13:46:05.400Z,22.40
2022-10-23T13:48:52.686Z,22.30
2022-10-23T13:51:43.330Z,22.30
2022-10-23T13:54:31.182Z,22.30
2022-10-23T13:57:18.255Z,22.30
2022-10-23T14:00:05.354Z,22.30
2022-10-23T14:02:58.417Z,22.30
2022-10-23T14:05:44.817Z,22.40
2022-10-23T14:08:31.196Z,22.30
2022-10-23T14:11:21.060Z,22.20
2022-10-23T14:14:07.717Z,22.20
2022-10-23T14:16:54.814Z,22.10
2022-10-23T14:19:42.083Z,22.00
2022-10-23T14:22:28.571Z,22.00
2022-10-23T14:25:15.391Z,21.90
2022-10-23T14:28:03.158Z,21.90
2022-10-23T14:30:49.419Z,21.80
2022-10-23T14:33:35.832Z,21.60
2022-10-23T14:36:22.680Z,21.60
2022-10-23T14:39:10.063Z,21.50
2022-10-23T14:41:56.333Z,21.50
2022-10-23T14:44:44.836Z,21.40
2022-10-23T14:47:32.889Z,21.40
2022-10-23T14:50:19.460Z,21.30
2022-10-23T14:53:06.184Z,21.20
2022-10-23T14:55:52.697Z,21.10
2022-10-23T14:58:39.032Z,21.10
2022-10-23T15:01:27.021Z,21.00
2022-10-23T15:04:14.859Z,20.90
2022-10-23T15:07:01.756Z,20.90
2022-10-23T15:09:48.107Z,20.90
2022-10-23T15:12:34.481Z,20.90
2022-10-23T15:15:22.268Z,20.80
2022-10-23T15:18:09.873Z,20.80
2022-10-23T15:20:56.343Z,20.70
2022-10-23T15:23:44.285Z,20.60
2022-10-23T15:26:31.107Z,20.50
2022-10-23T15:29:17.665Z,20.30
2022-10-23T15:32:06.048Z,20.30
2022-10-23T15:34:55.038Z,20.20
2022-10-23T15:37:41.552Z,20.10
2022-10-23T15:40:28.260Z,20.10
2022-10-23T15:43:15.861Z,20.10
2022-10-23T15:46:02.366Z,20.10
2022-10-23T15:48:48.985Z,20.10
2022-10-23T15:51:37.811Z,20.20
2022-10-23T15:54:26.043Z,20.20
2022-10-23T15:57:14.540Z,20.20
2022-10-23T16:00:01.052Z,20.10
2022-10-23T16:02:47.754Z,20.10
2022-10-23T16:05:34.301Z,20.10
2022-10-23T16:08:23.983Z,20.10
2022-10-23T16:11:16.247Z,20.10
2022-10-23T16:14:03.090Z,20.00
2022-10-23T16:16:49.402Z,20.00
2022-10-23T16:19:36.012Z,20.00
2022-10-23T16:22:22.438Z,20.00
2022-10-23T16:25:10.808Z,20.00
2022-10-23T16:27:59.855Z,20.00
2022-10-23T16:30:47.039Z,20.00
2022-10-23T16:33:33.757Z,20.00
2022-10-23T16:36:21.035Z,20.00
2022-10-23T16:39:26.405Z,20.00
2022-10-23T16:42:34.168Z,20.00
2022-10-23T16:45:48.121Z,20.00
2022-10-23T16:48:35.231Z,20.00
2022-10-23T16:51:23.515Z,20.10
2022-10-23T16:54:10.862Z,20.10
2022-10-23T16:56:58.586Z,20.10
2022-10-23T16:59:46.393Z,20.10
2022-10-23T17:02:33.529Z,20.20
2022-10-23T17:05:20.322Z,20.30
2022-10-23T17:08:06.725Z,20.20
2022-10-23T17:11:05.029Z,20.20
2022-10-23T17:13:57.150Z,20.30
2022-10-23T17:16:48.928Z,20.20
2022-10-23T17:19:45.229Z,20.20
2022-10-23T17:22:34.585Z,20.20
2022-10-23T17:25:21.180Z,20.10
2022-10-23T17:28:07.505Z,20.10
2022-10-23T17:30:54.785Z,20.10
2022-10-23T17:33:43.794Z,19.90
2022-10-23T17:36:32.157Z,19.80
2022-10-23T17:39:20.361Z,19.60
2022-10-23T17:42:06.996Z,19.40
2022-10-23T17:44:53.514Z,19.40
2022-10-23T17:47:42.916Z,19.20
2022-10-23T17:50:30.677Z,19.20
2022-10-23T17:53:17.204Z,19.10
2022-10-23T17:56:04.580Z,19.10
2022-10-23T17:58:52.326Z,19.00
2022-10-23T18:01:39.960Z,18.90
2022-10-23T18:04:26.624Z,18.70
2022-10-23T18:07:15.838Z,18.60
2022-10-23T18:10:02.134Z,18.50
2022-10-23T18:12:48.541Z,18.40
2022-10-23T18:15:36.306Z,18.40
2022-10-23T18:18:22.685Z,18.30
2022-10-23T18:21:09.548Z,18.30
2022-10-23T18:23:59.454Z,18.20
2022-10-23T18:26:47.881Z,18.00
2022-10-23T18:29:34.565Z,18.10
2022-10-23T18:32:20.983Z,18.00
2022-10-23T18:35:08.547Z,18.00
2022-10-23T18:37:55.061Z,17.90
2022-10-23T18:40:44.074Z,17.70
2022-10-23T18:43:43.188Z,17.60
2022-10-23T18:46:30.572Z,17.60
2022-10-23T18:49:18.921Z,17.60
2022-10-23T18:52:06.001Z,17.60
2022-10-23T18:54:52.350Z,17.70
2022-10-23T18:57:40.506Z,17.70
2022-10-23T19:00:26.997Z,17.80
2022-10-23T19:03:13.752Z,17.80
2022-10-23T19:06:00.363Z,17.60
2022-10-23T19:08:47.217Z,17.40
2022-10-23T19:11:33.850Z,17.40
2022-10-23T19:14:21.751Z,17.30
2022-10-23T19:17:11.938Z,17.30
2022-10-23T19:20:03.975Z,17.30
2022-10-23T19:22:53.469Z,17.20
2022-10-23T19:25:40.412Z,17.20
2022-10-23T19:28:26.727Z,17.20
2022-10-23T19:31:15.065Z,17.00
2022-10-23T19:34:01.865Z,16.90
2022-10-23T19:36:48.471Z,16.90
2022-10-23T19:39:34.971Z,17.00
2022-10-23T19:42:21.643Z,17.10
2022-10-23T19:45:09.857Z,17.20
2022-10-23T19:47:57.601Z,17.30
2022-10-23T19:50:44.012Z,17.40
2022-10-23T19:53:30.499Z,17.50
2022-10-23T19:56:17.497Z,17.50
2022-10-23T19:59:04.837Z,17.40
2022-10-23T20:01:51.566Z,17.40
2022-10-23T20:04:39.812Z,17.40
2022-10-23T20:07:26.211Z,17.50
2022-10-23T20:10:12.594Z,17.50
2022-10-23T20:13:15.057Z,17.50
2022-10-23T20:16:05.848Z,17.50
2022-10-23T20:18:52.782Z,17.60
2022-10-23T20:21:43.645Z,17.50
2022-10-23T20:24:30.184Z,17.40
2022-10-23T20:27:18.480Z,17.40
2022-10-23T20:30:05.790Z,17.30
2022-10-23T20:32:52.641Z,17.30
2022-10-23T20:35:39.837Z,17.30
2022-10-23T20:38:27.744Z,17.20
2022-10-23T20:41:14.509Z,17.20
2022-10-23T20:44:01.351Z,17.30
2022-10-23T20:46:48.358Z,17.10
2022-10-23T20:49:35.020Z,17.10
2022-10-23T20:52:22.030Z,17.20
2022-10-23T20:55:10.896Z,17.10
2022-10-23T20:57:57.602Z,17.20
2022-10-23T21:00:44.047Z,17.20
2022-10-23T21:03:30.847Z,17.20
2022-10-23T21:06:18.913Z,17.10
2022-10-23T21:09:07.276Z,17.10
2022-10-23T21:11:54.977Z,17.10
2022-10-23T21:14:41.520Z,17.10
2022-10-23T21:17:28.432Z,17.10
2022-10-23T21:20:17.038Z,17.10
2022-10-23T21:23:03.587Z,17.00
2022-10-23T21:25:50.320Z,17.00
2022-10-23T21:28:38.374Z,17.00
2022-10-23T21:31:25.714Z,17.00
2022-10-23T21:34:12.441Z,17.00
2022-10-23T21:37:15.168Z,17.00
2022-10-23T21:40:01.921Z,16.90
2022-10-23T21:42:48.092Z,17.00
2022-10-23T21:45:36.300Z,17.00
2022-10-23T21:48:22.962Z,17.00
2022-10-23T21:51:17.114Z,16.90
2022-10-23T21:54:03.721Z,16.80
2022-10-23T21:56:53.340Z,16.80
2022-10-23T21:59:39.784Z,16.70
2022-10-23T22:02:28.053Z,16.60
2022-10-23T22:05:14.686Z,16.60
2022-10-23T22:08:01.304Z,16.40
2022-10-23T22:10:47.599Z,16.30
2022-10-23T22:13:33.868Z,16.30
2022-10-23T22:16:21.241Z,16.40
2022-10-23T22:19:10.808Z,16.40
2022-10-23T22:21:57.425Z,16.60
2022-10-23T22:24:43.830Z,16.60
2022-10-23T22:27:30.265Z,16.30
2022-10-23T22:30:16.707Z,16.20
2022-10-23T22:33:03.086Z,16.10
2022-10-23T22:35:50.893Z,16.10
2022-10-23T22:38:37.375Z,16.20
2022-10-23T22:41:24.866Z,16.10
2022-10-23T22:44:12.673Z,15.80
2022-10-23T22:46:59.424Z,15.70
2022-10-23T22:49:45.651Z,15.80
2022-10-23T22:52:33.329Z,15.80
2022-10-23T22:55:19.764Z,15.80
2022-10-23T22:58:06.114Z,15.70
2022-10-23T23:00:53.960Z,15.90
2022-10-23T23:03:40.735Z,15.90
2022-10-23T23:06:27.532Z,15.80
2022-10-23T23:09:18.101Z,15.90
2022-10-23T23:12:05.741Z,16.00
2022-10-23T23:14:52.354Z,16.00
2022-10-23T23:17:38.783Z,16.00
2022-10-23T23:20:25.149Z,16.00
2022-10-23T23:23:14.044Z,16.00
2022-10-23T23:26:05.535Z,16.00
2022-10-23T23:28:53.159Z,16.00
2022-10-23T23:31:40.412Z,15.90
2022-10-23T23:34:27.292Z,15.90
2022-10-23T23:37:14.056Z,16.00
2022-10-23T23:40:00.329Z,16.00
2022-10-23T23:42:48.204Z,15.90
2022-10-23T23:45:34.951Z,16.00
2022-10-23T23:48:21.285Z,16.00
2022-10-23T23:51:07.831Z,15.90
2022-10-23T23:53:55.117Z,15.90
2022-10-23T23:56:41.620Z,15.80
2022-10-23T23:59:29.440Z,15.70
